Biggs Army Air Field (Fort Bliss)
KBIF : now visible

Airfield :











YOU CAN JOIN US ON...

 
LOGIN :

Register | Disclaimer

   EN    FR    IT 

 









Legend :    VFR   Marginal VFR   IFR   Intensive IFR   Very Intensive IFR
Visi :
Ceiling :
>= 8 km
>= 3000ft
5 to 8 km
1000 to 3000 ft
1500m to 5 km
500 to 1000 ft
800 to 1500m
200 to 500 ft
< 800m
< 200 ft
Symbols :   Thunderstorms  Fog  Heavy snow  Heavy precipitations  Wind > 20 kt






- Airport Elevation : 3946 ft


KBIF - Biggs Army Air Field (Fort Bliss)

CURRENT METAR :
  • 300956Z AUTO 00000KT 10SM CLR 16/03 A3012 RMK AO2 SLP141 T01560031 $

EXPIRED METARs :
  • 300856Z AUTO 24004KT 10SM CLR 16/03 A3012 RMK AO2 SLP141 T01580032 57006 $
  • 300756Z AUTO 00000KT 10SM CLR 17/03 A3012 RMK AO2 SLP141 T01690028 $

TAF TAF KBIF
Valid from the 30 at 06:00 until the 01 at 12:00 UTC


300600Z 3006/0112 VRB06KT 9999 FEW160 FEW220 QNH2995INS TX28/3022Z TN13/3012Z
KZAB FIR / North America



MET'MAP, your aeronautical weather chart ! - Copyright ORBIFLY December 2007 - Disclaimer

ORBIFLY MET'MAP TEAM :

Programming & Development : Alexandra Zaïnal
Original concept : Baudouin d'Aumeries
Technical & hardware support : Manuel Goepfert
Assistance : Marc-Olivier Méhu




SOURCES & CREDITS :

   NOAA       Earth
Advisory